Arcola, MS

8:22 AM CST on February 10, 2016 (GMT -0600)
Q102 Downtown Greenville | | Change Station
CLOSE
Current Station
Personal Weather Station
Location: Greenville, MS
Elevation: 141 ft
Nearby Weather Stations

Elev 141 ft 33.41 °N, 91.06 °W | Updated 46 seconds ago

Clear
Clear
33.3 °F
Feels Like 25 °F
N
10.7
Wind Variable Wind from North
Gusts 10.7 mph

Today
High -- | Low -- °F
--% Chance of Precip.
Yesterday
High -- | Low -- °F
Precip. -- in
Pressure 30.38 in
Visibility 10.0 miles
Clouds Clear
Windchill 25 °F
Dew Point 9 °F
Humidity 35%
Rainfall 0.00 in
Snow Depth Not available.
6:52 AM 5:43 PM
Waxing Crescent, 5% visible
METAR KGLH 101353Z AUTO 31006KT 10SM CLR M01/M09 A3034 RMK AO2 SLP285 T10061089
Pressure 30.38 in
Visibility 10.0 miles
Clouds Clear
Windchill 25 °F
Dew Point 9 °F
Humidity 35%
Rainfall 0.00 in
Snow Depth Not available.
6:52 AM 5:43 PM
Waxing Crescent, 5% visible
METAR KGLH 101353Z AUTO 31006KT 10SM CLR M01/M09 A3034 RMK AO2 SLP285 T10061089

10-Day Weather Forecast

Almanac

Astronomy

Feb. 10, 2016 Rise Set
Actual Time
Civil Twilight
Nautical Twilight
Astronomical Twilight
Moon
Length of Visible Light
Length of Day
Tomorrow will be .
, % of the Moon is Illuminated

Today's Extremes

State Highs State Lows

Community

WunderPhotos

Upload Photos

1,891,850 photos uploaded!

WunderBlog® & News

Nearby

Air Quality

  Air Quality AQ Index Pollutant
Not available.

Snow Depth

Station Depth Elevation

Earthquake Activity

City Distance Mag. Time & Date
Minimum magnitude displayed is 2.5.

Coastal Water Temperatures

Place Temperature

Stations

Nearby Weather Stations

Station Location Temp. Windchill Dew Point Humidity Wind Precip. Elev Updated Type
                   

Watches & Warnings

There are currently no watches in effect.